createdAt,value
2018-09-27T00:00:33.233Z,1025.59
2018-09-27T00:01:41.878Z,1025.61
2018-09-27T00:02:50.510Z,1025.53
2018-09-27T00:03:59.163Z,1025.52
2018-09-27T00:05:07.804Z,1025.43
2018-09-27T00:06:16.452Z,1025.43
2018-09-27T00:07:25.087Z,1025.48
2018-09-27T00:08:33.739Z,1025.48
2018-09-27T00:09:42.655Z,1025.51
2018-09-27T00:10:51.560Z,1025.51
2018-09-27T00:12:00.471Z,1025.49
2018-09-27T00:13:09.103Z,1025.52
2018-09-27T00:14:17.752Z,1025.51
2018-09-27T00:15:26.651Z,1025.56
2018-09-27T00:16:35.305Z,1025.56
2018-09-27T00:17:43.938Z,1025.55
2018-09-27T00:18:52.584Z,1025.57
2018-09-27T00:20:01.486Z,1025.62
2018-09-27T00:21:10.136Z,1025.61
2018-09-27T00:22:18.773Z,1025.62
2018-09-27T00:23:27.678Z,1025.62
2018-09-27T00:24:36.592Z,1025.6
2018-09-27T00:25:45.244Z,1025.55
2018-09-27T00:26:53.883Z,1025.51
2018-09-27T00:28:02.784Z,1025.52
2018-09-27T00:29:11.425Z,1025.53
2018-09-27T00:30:20.068Z,1025.52
2018-09-27T00:31:29.251Z,1025.52
2018-09-27T00:32:37.890Z,1025.6
2018-09-27T00:33:46.809Z,1025.61
2018-09-27T00:34:55.444Z,1025.64
2018-09-27T00:36:04.097Z,1025.65
2018-09-27T00:37:12.738Z,1025.61
2018-09-27T00:38:21.381Z,1025.63
2018-09-27T00:39:30.016Z,1025.59
2018-09-27T00:40:38.667Z,1025.56
2018-09-27T00:41:47.321Z,1025.54
2018-09-27T00:42:55.953Z,1025.54
2018-09-27T00:44:06.198Z,1025.51
2018-09-27T00:45:14.841Z,1025.52
2018-09-27T00:46:23.759Z,1025.5
2018-09-27T00:47:32.663Z,1025.54
2018-09-27T00:48:41.307Z,1025.5
2018-09-27T00:49:50.212Z,1025.51
2018-09-27T00:50:58.857Z,1025.53
2018-09-27T00:52:07.493Z,1025.47
2018-09-27T00:53:16.405Z,1025.45
2018-09-27T00:54:25.302Z,1025.48
2018-09-27T00:55:33.944Z,1025.5
2018-09-27T00:56:42.584Z,1025.47
2018-09-27T00:57:51.232Z,1025.48
2018-09-27T00:58:59.874Z,1025.42
2018-09-27T01:00:08.517Z,1025.4
2018-09-27T01:01:17.420Z,1025.39
2018-09-27T01:02:26.068Z,1025.4
2018-09-27T01:03:34.710Z,1025.44
2018-09-27T01:04:43.352Z,1025.43
2018-09-27T01:05:51.990Z,1025.48
2018-09-27T01:07:00.631Z,1025.5
2018-09-27T01:08:09.275Z,1025.51
2018-09-27T01:09:17.920Z,1025.49
2018-09-27T01:10:26.569Z,1025.43
2018-09-27T01:11:35.202Z,1025.43
2018-09-27T01:12:43.847Z,1025.38
2018-09-27T01:13:52.490Z,1025.35
2018-09-27T01:15:01.131Z,1025.34
2018-09-27T01:16:09.767Z,1025.31
2018-09-27T01:17:18.410Z,1025.32
2018-09-27T01:18:27.309Z,1025.29
2018-09-27T01:19:36.221Z,1025.3
2018-09-27T01:20:45.120Z,1025.29
2018-09-27T01:21:54.024Z,1025.33
2018-09-27T01:23:02.665Z,1025.37
2018-09-27T01:24:11.311Z,1025.37
2018-09-27T01:25:19.957Z,1025.36
2018-09-27T01:26:28.594Z,1025.39
2018-09-27T01:27:37.238Z,1025.41
2018-09-27T01:28:45.883Z,1025.35
2018-09-27T01:29:54.798Z,1025.35
2018-09-27T01:31:03.435Z,1025.33
2018-09-27T01:32:12.080Z,1025.32
2018-09-27T01:33:20.727Z,1025.34
2018-09-27T01:34:29.378Z,1025.32
2018-09-27T01:35:38.276Z,1025.3
2018-09-27T01:36:46.919Z,1025.29
2018-09-27T01:37:55.561Z,1025.32
2018-09-27T01:39:04.735Z,1025.33
2018-09-27T01:40:13.375Z,1025.33
2018-09-27T01:41:22.015Z,1025.34
2018-09-27T01:42:30.655Z,1025.31
2018-09-27T01:43:39.558Z,1025.28
2018-09-27T01:44:48.206Z,1025.24
2018-09-27T01:45:56.846Z,1025.3
2018-09-27T01:47:05.551Z,1025.23
2018-09-27T01:48:14.119Z,1025.25
2018-09-27T01:49:22.765Z,1025.19
2018-09-27T01:50:31.409Z,1025.23
2018-09-27T01:51:40.317Z,1025.14
2018-09-27T01:52:48.953Z,1025.18
2018-09-27T01:53:57.873Z,1025.18
2018-09-27T01:55:06.521Z,1025.1
2018-09-27T01:56:15.164Z,1025.13
2018-09-27T01:57:23.799Z,1025.06
2018-09-27T01:58:32.444Z,1025.05
2018-09-27T01:59:41.089Z,1025.01
2018-09-27T02:00:49.996Z,1025
2018-09-27T02:01:58.902Z,1025.02
2018-09-27T02:03:07.534Z,1025.01
2018-09-27T02:04:16.180Z,1025.02
2018-09-27T02:05:24.820Z,1024.98
2018-09-27T02:06:33.470Z,1025
2018-09-27T02:07:42.103Z,1024.99
2018-09-27T02:08:50.749Z,1024.98
2018-09-27T02:09:59.382Z,1025
2018-09-27T02:11:08.035Z,1025
2018-09-27T02:12:16.665Z,1024.98
2018-09-27T02:13:25.310Z,1025
2018-09-27T02:14:33.949Z,1024.97
2018-09-27T02:15:42.608Z,1024.97
2018-09-27T02:16:51.241Z,1024.97
2018-09-27T02:18:00.143Z,1024.97
2018-09-27T02:19:08.784Z,1024.93
2018-09-27T02:20:17.425Z,1024.89
2018-09-27T02:21:26.076Z,1024.89
2018-09-27T02:22:34.712Z,1024.88
2018-09-27T02:23:43.622Z,1024.86
2018-09-27T02:24:52.256Z,1024.8
2018-09-27T02:26:00.910Z,1024.82
2018-09-27T02:27:09.548Z,1024.81
2018-09-27T02:28:18.195Z,1024.79
2018-09-27T02:29:26.826Z,1024.76
2018-09-27T02:30:35.486Z,1024.73
2018-09-27T02:31:44.388Z,1024.72
2018-09-27T02:32:53.084Z,1024.71
2018-09-27T02:34:01.717Z,1024.68
2018-09-27T02:35:10.999Z,1024.69
2018-09-27T02:36:19.713Z,1024.66
2018-09-27T02:37:28.686Z,1024.69
2018-09-27T02:38:37.814Z,1024.68
2018-09-27T02:39:46.677Z,1024.69
2018-09-27T02:40:55.342Z,1024.72
2018-09-27T02:42:04.256Z,1024.69
2018-09-27T02:43:12.896Z,1024.71
2018-09-27T02:44:21.791Z,1024.71
2018-09-27T02:45:30.704Z,1024.77
2018-09-27T02:46:39.342Z,1024.73
2018-09-27T02:47:47.997Z,1024.73
2018-09-27T02:48:56.634Z,1024.72
2018-09-27T02:50:05.820Z,1024.7
2018-09-27T02:51:14.781Z,1024.65
2018-09-27T02:52:23.432Z,1024.66
2018-09-27T02:53:32.071Z,1024.64
2018-09-27T02:54:40.983Z,1024.59
2018-09-27T02:55:49.621Z,1024.61
2018-09-27T02:56:58.269Z,1024.59
2018-09-27T02:58:06.916Z,1024.57
2018-09-27T02:59:15.561Z,1024.59
2018-09-27T03:00:24.206Z,1024.58
2018-09-27T03:01:32.848Z,1024.59
2018-09-27T03:02:41.501Z,1024.58
2018-09-27T03:03:50.147Z,1024.52
2018-09-27T03:04:59.586Z,1024.51
2018-09-27T03:06:08.223Z,1024.5
2018-09-27T03:07:17.134Z,1024.51
2018-09-27T03:08:25.783Z,1024.52
2018-09-27T03:09:34.427Z,1024.52
2018-09-27T03:10:43.345Z,1024.49
2018-09-27T03:11:51.997Z,1024.47
2018-09-27T03:13:00.918Z,1024.45
2018-09-27T03:14:09.554Z,1024.43
2018-09-27T03:15:18.198Z,1024.43
2018-09-27T03:16:27.100Z,1024.39
2018-09-27T03:17:35.751Z,1024.41
2018-09-27T03:18:44.390Z,1024.42
2018-09-27T03:19:53.329Z,1024.42
2018-09-27T03:21:02.035Z,1024.42
2018-09-27T03:22:10.613Z,1024.41
2018-09-27T03:23:19.521Z,1024.39
2018-09-27T03:24:28.167Z,1024.36
2018-09-27T03:25:36.815Z,1024.38
2018-09-27T03:26:45.456Z,1024.36
2018-09-27T03:27:54.094Z,1024.31
2018-09-27T03:29:03.005Z,1024.36
2018-09-27T03:30:11.651Z,1024.34
2018-09-27T03:31:20.566Z,1024.35
2018-09-27T03:32:29.205Z,1024.38
2018-09-27T03:33:37.847Z,1024.38
2018-09-27T03:34:46.772Z,1024.4
2018-09-27T03:35:55.677Z,1024.41
2018-09-27T03:37:04.321Z,1024.38
2018-09-27T03:38:12.964Z,1024.42
2018-09-27T03:39:21.610Z,1024.4
2018-09-27T03:40:30.312Z,1024.36
2018-09-27T03:41:39.316Z,1024.37
2018-09-27T03:42:48.226Z,1024.41
2018-09-27T03:43:57.136Z,1024.36
2018-09-27T03:45:05.778Z,1024.36
2018-09-27T03:46:14.958Z,1024.34
2018-09-27T03:47:23.604Z,1024.36
2018-09-27T03:48:32.249Z,1024.32
2018-09-27T03:49:40.898Z,1024.32
2018-09-27T03:50:49.540Z,1024.36
2018-09-27T03:51:58.447Z,1024.32
2018-09-27T03:53:07.096Z,1024.29
2018-09-27T03:54:16.007Z,1024.31
2018-09-27T03:55:24.658Z,1024.3
2018-09-27T03:56:33.293Z,1024.28
2018-09-27T03:57:42.209Z,1024.24
2018-09-27T03:58:50.855Z,1024.26
2018-09-27T03:59:59.763Z,1024.28
2018-09-27T04:01:08.403Z,1024.24
2018-09-27T04:02:17.050Z,1024.27
2018-09-27T04:03:26.281Z,1024.25
2018-09-27T04:04:34.866Z,1024.26
2018-09-27T04:05:43.505Z,1024.23
2018-09-27T04:06:52.151Z,1024.25
2018-09-27T04:08:01.328Z,1024.32
2018-09-27T04:09:10.236Z,1024.26
2018-09-27T04:10:18.879Z,1024.23
2018-09-27T04:11:27.776Z,1024.19
2018-09-27T04:12:36.766Z,1024.2
2018-09-27T04:13:45.724Z,1024.16
2018-09-27T04:14:54.370Z,1024.19
2018-09-27T04:16:03.008Z,1024.13
2018-09-27T04:17:11.649Z,1024.15
2018-09-27T04:18:20.563Z,1024.14
2018-09-27T04:19:29.208Z,1024.14
2018-09-27T04:20:37.870Z,1024.1
2018-09-27T04:21:46.542Z,1024.1
2018-09-27T04:22:55.130Z,1024.11
2018-09-27T04:24:03.793Z,1024.13
2018-09-27T04:25:12.417Z,1024.11
2018-09-27T04:26:21.326Z,1024.13
2018-09-27T04:27:29.966Z,1024.1
2018-09-27T04:28:38.883Z,1024.09
2018-09-27T04:29:47.535Z,1024.09
2018-09-27T04:30:56.173Z,1024.08
2018-09-27T04:32:04.815Z,1024.12
2018-09-27T04:33:13.456Z,1024.11
2018-09-27T04:34:22.633Z,1024.1
2018-09-27T04:35:31.276Z,1024.14
2018-09-27T04:36:40.181Z,1024.15
2018-09-27T04:37:48.818Z,1024.1
2018-09-27T04:38:57.465Z,1024.13
2018-09-27T04:40:06.107Z,1024.09
2018-09-27T04:41:14.766Z,1024.13
2018-09-27T04:42:23.669Z,1024.13
2018-09-27T04:43:32.838Z,1024.17
2018-09-27T04:44:41.744Z,1024.13
2018-09-27T04:45:50.723Z,1024.18
2018-09-27T04:46:59.293Z,1024.16
2018-09-27T04:48:07.931Z,1024.15
2018-09-27T04:49:16.577Z,1024.12
2018-09-27T04:50:25.216Z,1024.12
2018-09-27T04:51:33.865Z,1024.09
2018-09-27T04:52:43.114Z,1024.09
2018-09-27T04:53:51.759Z,1024.07
2018-09-27T04:55:00.396Z,1024.07
2018-09-27T04:56:09.048Z,1024.09
2018-09-27T04:57:17.681Z,1024.08
2018-09-27T04:58:26.325Z,1024.06
2018-09-27T04:59:34.966Z,1024.09
2018-09-27T05:00:43.618Z,1024.04
2018-09-27T05:01:52.258Z,1024.1
2018-09-27T05:03:00.902Z,1024.08
2018-09-27T05:04:09.806Z,1024.09
2018-09-27T05:05:18.446Z,1024.05
2018-09-27T05:06:27.251Z,1024.09
2018-09-27T05:07:35.734Z,1024.08
2018-09-27T05:08:44.381Z,1024.15
2018-09-27T05:09:53.014Z,1024.15
2018-09-27T05:11:01.672Z,1024.15
2018-09-27T05:12:10.307Z,1024.17
2018-09-27T05:13:19.213Z,1024.13
2018-09-27T05:14:27.845Z,1024.13
2018-09-27T05:15:36.517Z,1024.15
2018-09-27T05:16:45.633Z,1024.16
2018-09-27T05:17:54.286Z,1024.13
2018-09-27T05:19:02.924Z,1024.09
2018-09-27T05:20:11.831Z,1024.1
2018-09-27T05:21:20.482Z,1024.14
2018-09-27T05:22:29.419Z,1024.07
2018-09-27T05:23:38.064Z,1024.09
2018-09-27T05:24:46.696Z,1024.09
2018-09-27T05:25:55.343Z,1024.11
2018-09-27T05:27:03.983Z,1024.11
2018-09-27T05:28:12.957Z,1024.06
2018-09-27T05:29:21.593Z,1024.05
2018-09-27T05:30:30.233Z,1024.09
2018-09-27T05:31:38.872Z,1024.05
2018-09-27T05:32:47.520Z,1024.03
2018-09-27T05:33:56.417Z,1024.05
2018-09-27T05:35:05.065Z,1024.05
2018-09-27T05:36:13.702Z,1024.02
2018-09-27T05:37:22.354Z,1024.05
2018-09-27T05:38:30.997Z,1024.06
2018-09-27T05:39:39.669Z,1024.02
2018-09-27T05:40:48.274Z,1024.06
2018-09-27T05:41:56.916Z,1024.07
2018-09-27T05:43:05.819Z,1024.06
2018-09-27T05:44:14.466Z,1024.05
2018-09-27T05:45:23.133Z,1024.08
2018-09-27T05:46:32.018Z,1024.08
2018-09-27T05:47:40.664Z,1024.09
2018-09-27T05:48:49.580Z,1024.07
2018-09-27T05:49:58.249Z,1024.12
2018-09-27T05:51:07.136Z,1024.13
2018-09-27T05:52:15.779Z,1024.09
2018-09-27T05:53:24.433Z,1024.1
2018-09-27T05:54:33.071Z,1024.07
2018-09-27T05:55:42.002Z,1024.06
2018-09-27T05:56:50.955Z,1024.03
2018-09-27T05:57:59.597Z,1024.06
2018-09-27T05:59:08.239Z,1024.09
2018-09-27T06:00:16.878Z,1024.09
2018-09-27T06:01:25.529Z,1024.1
2018-09-27T06:02:34.173Z,1024.09
2018-09-27T06:03:42.886Z,1024.12
2018-09-27T06:04:51.462Z,1024.16
2018-09-27T06:06:00.111Z,1024.11
2018-09-27T06:07:08.763Z,1024.14
2018-09-27T06:08:17.395Z,1024.11
2018-09-27T06:09:26.371Z,1024.11
2018-09-27T06:10:35.979Z,1024.12
2018-09-27T06:11:44.622Z,1024.11
2018-09-27T06:12:53.264Z,1024.08
2018-09-27T06:14:01.904Z,1024.07
2018-09-27T06:15:10.549Z,1024.06
2018-09-27T06:16:19.461Z,1024.06
2018-09-27T06:17:28.104Z,1024.08
2018-09-27T06:18:36.749Z,1024.06
2018-09-27T06:19:45.449Z,1024.07
2018-09-27T06:20:54.364Z,1024.05
2018-09-27T06:22:03.008Z,1024.07
2018-09-27T06:23:11.916Z,1024.05
2018-09-27T06:24:20.552Z,1024
2018-09-27T06:25:29.193Z,1024
2018-09-27T06:26:37.838Z,1024.01
2018-09-27T06:27:46.484Z,1023.99
2018-09-27T06:28:55.122Z,1024
2018-09-27T06:30:03.767Z,1023.97
2018-09-27T06:31:12.418Z,1024.01
2018-09-27T06:32:21.056Z,1024.01
2018-09-27T06:33:29.717Z,1024.04
2018-09-27T06:34:38.697Z,1024.02
2018-09-27T06:35:47.338Z,1024.05
2018-09-27T06:36:56.240Z,1024.07
2018-09-27T06:38:04.887Z,1024.06
2018-09-27T06:39:13.804Z,1024.08
2018-09-27T06:40:22.448Z,1024.04
2018-09-27T06:41:31.093Z,1024.07
2018-09-27T06:42:39.733Z,1024.09
2018-09-27T06:43:48.374Z,1024.11
2018-09-27T06:44:57.034Z,1024.06
2018-09-27T06:46:05.652Z,1024.08
2018-09-27T06:47:14.304Z,1024.05
2018-09-27T06:48:22.992Z,1024.1
2018-09-27T06:49:31.868Z,1024.1
2018-09-27T06:50:40.858Z,1024.1
2018-09-27T06:51:49.408Z,1024.05
2018-09-27T06:52:58.057Z,1024.04
2018-09-27T06:54:06.702Z,1024.05
2018-09-27T06:55:15.410Z,1024.02
2018-09-27T06:56:24.029Z,1024.06
2018-09-27T06:57:33.369Z,1024.02
2018-09-27T06:58:42.009Z,1024.03
2018-09-27T06:59:50.663Z,1024.01
2018-09-27T07:00:59.339Z,1024.02
2018-09-27T07:02:07.947Z,1023.99
2018-09-27T07:03:16.584Z,1024
2018-09-27T07:04:25.239Z,1023.98
2018-09-27T07:05:33.874Z,1023.94
2018-09-27T07:06:42.519Z,1023.93
2018-09-27T07:07:51.428Z,1023.94
2018-09-27T07:09:00.081Z,1023.91
2018-09-27T07:10:08.724Z,1023.88
2018-09-27T07:11:17.361Z,1023.91
2018-09-27T07:12:26.185Z,1023.87
2018-09-27T07:13:34.647Z,1023.92
2018-09-27T07:14:43.344Z,1023.87
2018-09-27T07:15:52.317Z,1023.84
2018-09-27T07:17:00.964Z,1023.9
2018-09-27T07:18:09.864Z,1023.91
2018-09-27T07:19:18.518Z,1023.9
2018-09-27T07:20:27.203Z,1023.91
2018-09-27T07:21:36.394Z,1023.85
2018-09-27T07:22:45.030Z,1023.93
2018-09-27T07:23:53.681Z,1023.92
2018-09-27T07:25:02.619Z,1023.86
2018-09-27T07:26:11.236Z,1023.88
2018-09-27T07:27:19.871Z,1023.86
2018-09-27T07:28:28.525Z,1023.86
2018-09-27T07:29:37.176Z,1023.83
2018-09-27T07:30:45.850Z,1023.84
2018-09-27T07:31:54.560Z,1023.89
2018-09-27T07:33:03.256Z,1023.91
2018-09-27T07:34:12.047Z,1023.94
2018-09-27T07:35:20.687Z,1023.92
2018-09-27T07:36:29.407Z,1023.92
2018-09-27T07:37:38.114Z,1023.91
2018-09-27T07:38:46.990Z,1023.94
2018-09-27T07:39:55.870Z,1023.94
2018-09-27T07:41:04.625Z,1023.93
2018-09-27T07:42:13.794Z,1023.93
2018-09-27T07:43:22.492Z,1023.93
2018-09-27T07:44:31.259Z,1023.95
2018-09-27T07:45:39.852Z,1023.93
2018-09-27T07:46:48.500Z,1023.92
2018-09-27T07:47:57.142Z,1023.94
2018-09-27T07:49:05.790Z,1023.99
2018-09-27T07:50:14.434Z,1023.97
2018-09-27T07:51:23.067Z,1024.02
2018-09-27T07:52:31.984Z,1024.03
2018-09-27T07:53:40.628Z,1024.02
2018-09-27T07:54:49.335Z,1024.01
2018-09-27T07:55:57.920Z,1024.03
2018-09-27T07:57:06.563Z,1024.03
2018-09-27T07:58:15.467Z,1024.04
2018-09-27T07:59:24.383Z,1024.02
2018-09-27T08:00:33.019Z,1024.05
2018-09-27T08:01:41.689Z,1024.03
2018-09-27T08:02:50.469Z,1023.96
2018-09-27T08:03:59.441Z,1023.96
2018-09-27T08:05:08.422Z,1024
2018-09-27T08:06:17.062Z,1023.95
2018-09-27T08:07:25.970Z,1023.95
2018-09-27T08:08:34.661Z,1023.97
2018-09-27T08:09:43.631Z,1023.97
2018-09-27T08:10:52.576Z,1023.93
2018-09-27T08:12:01.382Z,1023.97
2018-09-27T08:13:09.823Z,1023.96
2018-09-27T08:14:19.003Z,1023.96
2018-09-27T08:15:27.958Z,1023.93
2018-09-27T08:16:36.608Z,1023.91
2018-09-27T08:17:45.505Z,1023.91
2018-09-27T08:18:54.159Z,1023.87
2018-09-27T08:20:03.357Z,1023.9
2018-09-27T08:21:12.128Z,1023.89
2018-09-27T08:22:20.653Z,1023.87
2018-09-27T08:23:29.299Z,1023.87
2018-09-27T08:24:37.948Z,1023.85
2018-09-27T08:25:46.597Z,1023.83
2018-09-27T08:26:55.244Z,1023.82
2018-09-27T08:28:03.882Z,1023.8
2018-09-27T08:29:12.531Z,1023.79
2018-09-27T08:30:21.205Z,1023.81
2018-09-27T08:31:29.825Z,1023.82
2018-09-27T08:32:38.536Z,1023.81
2018-09-27T08:33:47.109Z,1023.82
2018-09-27T08:34:56.029Z,1023.84
2018-09-27T08:36:04.684Z,1023.8
2018-09-27T08:37:13.316Z,1023.8
2018-09-27T08:38:22.035Z,1023.81
2018-09-27T08:39:31.536Z,1023.79
2018-09-27T08:40:40.189Z,1023.81
2018-09-27T08:41:48.832Z,1023.79
2018-09-27T08:42:57.474Z,1023.76
2018-09-27T08:44:06.119Z,1023.76
2018-09-27T08:45:14.944Z,1023.69
2018-09-27T08:46:23.416Z,1023.7
2018-09-27T08:47:32.061Z,1023.69
2018-09-27T08:48:40.704Z,1023.7
2018-09-27T08:49:49.609Z,1023.68
2018-09-27T08:50:58.523Z,1023.67
2018-09-27T08:52:07.165Z,1023.66
2018-09-27T08:53:15.811Z,1023.6
2018-09-27T08:54:24.455Z,1023.66
2018-09-27T08:55:33.133Z,1023.59
2018-09-27T08:56:41.755Z,1023.57
2018-09-27T08:57:50.393Z,1023.57
2018-09-27T08:58:59.036Z,1023.55
2018-09-27T09:00:07.683Z,1023.5
2018-09-27T09:01:16.328Z,1023.5
2018-09-27T09:02:25.272Z,1023.45
2018-09-27T09:03:34.008Z,1023.41
2018-09-27T09:04:42.955Z,1023.41
2018-09-27T09:05:51.630Z,1023.38
2018-09-27T09:07:00.292Z,1023.4
2018-09-27T09:08:08.941Z,1023.35
2018-09-27T09:09:17.582Z,1023.38
2018-09-27T09:10:26.227Z,1023.38
2018-09-27T09:11:34.871Z,1023.36
2018-09-27T09:12:43.798Z,1023.31
2018-09-27T09:13:52.446Z,1023.32
2018-09-27T09:15:01.359Z,1023.31
2018-09-27T09:16:10.062Z,1023.31
2018-09-27T09:17:18.712Z,1023.32
2018-09-27T09:18:27.360Z,1023.27
2018-09-27T09:19:36.071Z,1023.31
2018-09-27T09:20:44.653Z,1023.28
2018-09-27T09:21:53.301Z,1023.29
2018-09-27T09:23:01.947Z,1023.26
2018-09-27T09:24:10.849Z,1023.28
2018-09-27T09:25:19.758Z,1023.25
2018-09-27T09:26:28.400Z,1023.2
2018-09-27T09:27:37.083Z,1023.21
2018-09-27T09:28:45.695Z,1023.19
2018-09-27T09:29:54.357Z,1023.15
2018-09-27T09:31:03.158Z,1023.11
2018-09-27T09:32:12.073Z,1023.13
2018-09-27T09:33:20.716Z,1023.07
2018-09-27T09:34:29.962Z,1023.07
2018-09-27T09:35:38.728Z,1023.02
2018-09-27T09:36:47.262Z,1023.04
2018-09-27T09:37:56.175Z,1023.02
2018-09-27T09:39:04.820Z,1023.05
2018-09-27T09:40:13.468Z,1023.01
2018-09-27T09:41:22.370Z,1023.01
2018-09-27T09:42:31.023Z,1022.94
2018-09-27T09:43:39.664Z,1022.98
2018-09-27T09:44:48.319Z,1022.95
2018-09-27T09:45:56.955Z,1022.94
2018-09-27T09:47:05.606Z,1022.93
2018-09-27T09:48:14.512Z,1022.91
2018-09-27T09:49:23.170Z,1022.91
2018-09-27T09:50:32.066Z,1022.88
2018-09-27T09:51:40.713Z,1022.88
2018-09-27T09:52:49.369Z,1022.88
2018-09-27T09:53:58.018Z,1022.84
2018-09-27T09:55:06.676Z,1022.85
2018-09-27T09:56:15.322Z,1022.81
2018-09-27T09:57:23.968Z,1022.79
2018-09-27T09:58:32.608Z,1022.77
2018-09-27T09:59:41.263Z,1022.77
2018-09-27T10:00:49.905Z,1022.75
2018-09-27T10:01:58.555Z,1022.76
2018-09-27T10:03:07.194Z,1022.72
2018-09-27T10:04:15.848Z,1022.72
2018-09-27T10:05:24.490Z,1022.68
2018-09-27T10:06:33.141Z,1022.68
2018-09-27T10:07:41.778Z,1022.67
2018-09-27T10:08:50.439Z,1022.63
2018-09-27T10:09:59.072Z,1022.62
2018-09-27T10:11:07.726Z,1022.62
2018-09-27T10:12:16.363Z,1022.64
2018-09-27T10:13:25.013Z,1022.64
2018-09-27T10:14:33.667Z,1022.6
2018-09-27T10:15:42.591Z,1022.57
2018-09-27T10:16:51.238Z,1022.63
2018-09-27T10:17:59.885Z,1022.59
2018-09-27T10:19:08.795Z,1022.55
2018-09-27T10:20:17.437Z,1022.52
2018-09-27T10:21:26.090Z,1022.53
2018-09-27T10:22:34.736Z,1022.5
2018-09-27T10:23:43.386Z,1022.47
2018-09-27T10:24:52.027Z,1022.45
2018-09-27T10:26:00.685Z,1022.41
2018-09-27T10:27:09.590Z,1022.45
2018-09-27T10:28:18.239Z,1022.38
2018-09-27T10:29:27.149Z,1022.35
2018-09-27T10:30:35.804Z,1022.32
2018-09-27T10:31:44.712Z,1022.32
2018-09-27T10:32:53.360Z,1022.32
2018-09-27T10:34:02.571Z,1022.28
2018-09-27T10:35:11.186Z,1022.3
2018-09-27T10:36:19.841Z,1022.25
2018-09-27T10:37:28.486Z,1022.29
2018-09-27T10:38:37.146Z,1022.28
2018-09-27T10:39:46.058Z,1022.21
2018-09-27T10:40:54.712Z,1022.19
2018-09-27T10:42:03.358Z,1022.19
2018-09-27T10:43:12.008Z,1022.18
2018-09-27T10:44:20.655Z,1022.17
2018-09-27T10:45:29.567Z,1022.15
2018-09-27T10:46:38.488Z,1022.17
2018-09-27T10:47:47.664Z,1022.2
2018-09-27T10:48:56.578Z,1022.17
2018-09-27T10:50:05.228Z,1022.19
2018-09-27T10:51:14.443Z,1022.19
2018-09-27T10:52:23.052Z,1022.2
2018-09-27T10:53:31.703Z,1022.17
2018-09-27T10:54:40.342Z,1022.13
2018-09-27T10:55:48.990Z,1022.11
2018-09-27T10:56:57.656Z,1022.13
2018-09-27T10:58:06.294Z,1022.09
2018-09-27T10:59:14.935Z,1022.1
2018-09-27T11:00:23.582Z,1022.1
2018-09-27T11:01:32.228Z,1022.08
2018-09-27T11:02:40.880Z,1022.05
2018-09-27T11:03:49.524Z,1022.03
2018-09-27T11:04:58.178Z,1021.99
2018-09-27T11:06:06.821Z,1022.03
2018-09-27T11:07:15.737Z,1021.99
2018-09-27T11:08:24.380Z,1021.94
2018-09-27T11:09:33.028Z,1021.94
2018-09-27T11:10:41.675Z,1021.93
2018-09-27T11:11:50.583Z,1021.95
2018-09-27T11:12:59.543Z,1021.93
2018-09-27T11:14:08.717Z,1021.86
2018-09-27T11:15:17.631Z,1021.84
2018-09-27T11:16:26.608Z,1021.83
2018-09-27T11:17:35.220Z,1021.83
2018-09-27T11:18:43.881Z,1021.79
2018-09-27T11:19:52.527Z,1021.73
2018-09-27T11:21:01.163Z,1021.75
2018-09-27T11:22:09.898Z,1021.71
2018-09-27T11:23:18.465Z,1021.74
2018-09-27T11:24:27.377Z,1021.71
2018-09-27T11:25:36.026Z,1021.65
2018-09-27T11:26:44.715Z,1021.66
2018-09-27T11:27:53.423Z,1021.62
2018-09-27T11:29:02.216Z,1021.6
2018-09-27T11:30:10.846Z,1021.62
2018-09-27T11:31:19.544Z,1021.52
2018-09-27T11:32:28.515Z,1021.54
2018-09-27T11:33:37.167Z,1021.54
2018-09-27T11:34:45.824Z,1021.51
2018-09-27T11:35:54.466Z,1021.45
2018-09-27T11:37:03.225Z,1021.45
2018-09-27T11:38:11.912Z,1021.45
2018-09-27T11:39:20.694Z,1021.41
2018-09-27T11:40:29.701Z,1021.41
2018-09-27T11:41:38.978Z,1021.36
2018-09-27T11:42:47.710Z,1021.35
2018-09-27T11:43:56.884Z,1021.32
2018-09-27T11:45:06.005Z,1021.27
2018-09-27T11:46:14.650Z,1021.21
2018-09-27T11:47:23.306Z,1021.2
2018-09-27T11:48:31.954Z,1021.18
2018-09-27T11:49:40.752Z,1021.19
2018-09-27T11:50:49.247Z,1021.15
2018-09-27T11:51:57.895Z,1021.16
2018-09-27T11:53:06.547Z,1021.12
2018-09-27T11:54:15.190Z,1021.12
2018-09-27T11:55:23.834Z,1021.06
2018-09-27T11:56:32.479Z,1021.05
2018-09-27T11:57:41.131Z,1021.01
2018-09-27T11:58:49.772Z,1020.95
2018-09-27T11:59:58.419Z,1020.97
2018-09-27T12:01:07.064Z,1020.96
2018-09-27T12:02:15.724Z,1020.93
2018-09-27T12:03:24.374Z,1020.84
2018-09-27T12:04:33.018Z,1020.83
2018-09-27T12:05:41.673Z,1020.81
2018-09-27T12:06:50.581Z,1020.8
2018-09-27T12:07:59.267Z,1020.7
2018-09-27T12:09:08.172Z,1020.72
2018-09-27T12:10:16.835Z,1020.66
2018-09-27T12:11:25.744Z,1020.64
2018-09-27T12:12:34.397Z,1020.64
2018-09-27T12:13:43.129Z,1020.66
2018-09-27T12:14:51.776Z,1020.61
2018-09-27T12:16:00.420Z,1020.58
2018-09-27T12:17:09.382Z,1020.58
2018-09-27T12:18:18.033Z,1020.52
2018-09-27T12:19:26.984Z,1020.54
2018-09-27T12:20:36.333Z,1020.54
2018-09-27T12:21:45.246Z,1020.55
2018-09-27T12:22:54.232Z,1020.54
2018-09-27T12:24:03.117Z,1020.51
2018-09-27T12:25:12.032Z,1020.5
2018-09-27T12:26:20.678Z,1020.48
2018-09-27T12:27:29.590Z,1020.45
2018-09-27T12:28:38.286Z,1020.49
2018-09-27T12:29:46.891Z,1020.47
2018-09-27T12:30:55.543Z,1020.45
2018-09-27T12:32:04.459Z,1020.4
2018-09-27T12:33:13.109Z,1020.39
2018-09-27T12:34:21.762Z,1020.34
2018-09-27T12:35:30.406Z,1020.33
2018-09-27T12:36:39.084Z,1020.32
2018-09-27T12:37:47.702Z,1020.28
2018-09-27T12:38:56.394Z,1020.25
2018-09-27T12:40:05.007Z,1020.27
2018-09-27T12:41:13.919Z,1020.26
2018-09-27T12:42:22.585Z,1020.24
2018-09-27T12:43:31.215Z,1020.2
2018-09-27T12:44:39.872Z,1020.21
2018-09-27T12:45:48.591Z,1020.2
2018-09-27T12:46:57.653Z,1020.21
2018-09-27T12:48:06.421Z,1020.19
2018-09-27T12:49:15.355Z,1020.19
2018-09-27T12:50:24.313Z,1020.19
2018-09-27T12:51:32.998Z,1020.16
2018-09-27T12:52:41.574Z,1020.16
2018-09-27T12:53:50.212Z,1020.13
2018-09-27T12:54:58.858Z,1020.11
2018-09-27T12:56:07.551Z,1020.11
2018-09-27T12:57:16.187Z,1020.11
2018-09-27T12:58:25.121Z,1020.09
2018-09-27T12:59:33.761Z,1020.06
2018-09-27T13:00:42.417Z,1020.02
2018-09-27T13:01:51.165Z,1020.06
2018-09-27T13:02:59.841Z,1019.97
2018-09-27T13:04:08.445Z,1019.97
2018-09-27T13:05:17.361Z,1019.96
2018-09-27T13:06:26.309Z,1019.92
2018-09-27T13:07:35.478Z,1019.92
2018-09-27T13:08:44.275Z,1019.9
2018-09-27T13:09:53.013Z,1019.96
2018-09-27T13:11:01.435Z,1019.95
2018-09-27T13:12:10.163Z,1019.92
2018-09-27T13:13:18.821Z,1019.89
2018-09-27T13:14:27.383Z,1019.89
2018-09-27T13:15:36.611Z,1019.85
2018-09-27T13:16:45.258Z,1019.85
2018-09-27T13:17:54.167Z,1019.79
2018-09-27T13:19:03.125Z,1019.78
2018-09-27T13:20:12.051Z,1019.73
2018-09-27T13:21:20.705Z,1019.73
2018-09-27T13:22:29.354Z,1019.7
2018-09-27T13:23:38.326Z,1019.69
2018-09-27T13:24:47.252Z,1019.7
2018-09-27T13:25:55.898Z,1019.66
2018-09-27T13:27:04.600Z,1019.68
2018-09-27T13:28:13.200Z,1019.65
2018-09-27T13:29:21.837Z,1019.61
2018-09-27T13:30:30.496Z,1019.66
2018-09-27T13:31:39.142Z,1019.6
2018-09-27T13:32:48.058Z,1019.6
2018-09-27T13:33:56.702Z,1019.58
2018-09-27T13:35:05.388Z,1019.55
2018-09-27T13:36:14.269Z,1019.55
2018-09-27T13:37:22.924Z,1019.55
2018-09-27T13:38:31.568Z,1019.53
2018-09-27T13:39:40.209Z,1019.51
2018-09-27T13:40:48.863Z,1019.47
2018-09-27T13:41:57.511Z,1019.46
2018-09-27T13:43:06.327Z,1019.44
2018-09-27T13:44:14.807Z,1019.45
2018-09-27T13:45:23.461Z,1019.42
2018-09-27T13:46:32.215Z,1019.35
2018-09-27T13:47:40.768Z,1019.4
2018-09-27T13:48:49.694Z,1019.35
2018-09-27T13:49:58.610Z,1019.36
2018-09-27T13:51:07.556Z,1019.37
2018-09-27T13:52:16.180Z,1019.32
2018-09-27T13:53:24.826Z,1019.3
2018-09-27T13:54:33.730Z,1019.3